Time;durP1;ratioP1;P1;durP2;ratioP2;P2;SDS_P1;SDS_P2;PMS_P1;PMS_P2;Temp;Humidity;BMP_temperature;BMP_pressure;BME280_temperature;BME280_humidity;BME280_pressure;Samples;Min_cycle;Max_cycle;Signal;HPM_P1;HPM_P2
2022/01/20 00:08:27;;;;;;;4.72;1.60;;;;;;;13.82;65.82;101647.22;20999060;28;20037;-65
2022/01/20 00:28:53;;;;;;;5.20;1.35;;;;;;;14.14;66.21;101704.19;20997786;28;20040;-65
2022/01/20 00:38:55;;;;;;;20.13;2.33;;;;;;;14.10;65.86;101709.81;20998654;28;20048;-65
2022/01/20 00:48:56;;;;;;;3.45;1.50;;;;;;;14.22;66.35;101703.75;20996224;28;20771;-65
2022/01/20 00:58:58;;;;;;;4.75;1.25;;;;;;;14.19;66.05;101707.47;20995326;28;20098;-65
2022/01/20 01:09:00;;;;;;;6.32;2.00;;;;;;;13.95;66.11;101653.56;20976677;28;20036;-65
2022/01/20 01:30:13;;;;;;;5.50;1.30;;;;;;;14.19;65.85;101711.97;20960837;28;20044;-65
2022/01/20 01:39:48;;;;;;;3.83;1.13;;;;;;;14.22;66.26;101714.47;20968570;28;20045;-66
2022/01/20 01:50:10;;;;;;;3.65;2.00;;;;;;;13.84;65.46;101685.47;20973347;28;20055;-66
2022/01/20 02:00:14;;;;;;;3.72;1.50;;;;;;;13.83;65.75;101681.06;20956354;28;20059;-66
2022/01/20 02:20:39;;;;;;;3.75;1.35;;;;;;;13.89;65.82;101659.28;20989044;28;20385;-66
2022/01/20 02:30:48;;;;;;;4.40;1.00;;;;;;;13.95;65.76;101696.41;20954348;28;20048;-66
2022/01/20 02:51:10;;;;;;;5.45;1.35;;;;;;;14.04;66.62;101772.66;20942189;28;20094;-66
2022/01/20 03:01:13;;;;;;;4.28;1.25;;;;;;;13.96;66.11;101750.81;20952890;28;20113;-65
2022/01/20 03:11:14;;;;;;;5.53;1.30;;;;;;;14.32;66.10;101798.66;20968843;28;20065;-66
2022/01/20 03:21:16;;;;;;;3.40;1.08;;;;;;;14.17;66.05;101794.22;20986765;28;20052;-66
2022/01/20 03:31:18;;;;;;;8.40;1.30;;;;;;;14.32;65.90;101844.19;20985786;28;20048;-65
2022/01/20 03:41:20;;;;;;;5.30;1.10;;;;;;;14.17;66.12;101829.03;20951417;28;20504;-65
2022/01/20 03:51:26;;;;;;;3.05;1.00;;;;;;;13.96;66.21;101793.66;20965462;28;20533;-66
2022/01/20 04:01:31;;;;;;;4.87;1.07;;;;;;;14.29;65.89;101864.94;20950187;28;20041;-66
2022/01/20 04:11:55;;;;;;;3.38;1.10;;;;;;;14.00;65.87;101817.47;20981149;28;20060;-65
2022/01/20 04:21:58;;;;;;;4.45;2.00;;;;;;;13.91;66.09;101821.53;20964520;28;20056;-66
2022/01/20 04:32:00;;;;;;;4.10;1.10;;;;;;;14.15;65.40;101863.91;20979642;28;20608;-65
2022/01/20 04:42:02;;;;;;;3.75;1.05;;;;;;;14.07;64.68;101858.16;20979191;28;20040;-66
2022/01/20 05:02:27;;;;;;;4.30;1.40;;;;;;;14.43;63.25;101878.41;20962754;28;20474;-66
2022/01/20 05:13:01;;;;;;;6.20;1.42;;;;;;;14.31;63.10;101820.16;20977644;28;20517;-65
2022/01/20 05:22:57;;;;;;;3.38;1.17;;;;;;;14.85;63.31;101926.91;20975759;28;20799;-66
2022/01/20 05:33:02;;;;;;;7.20;1.73;;;;;;;14.36;62.77;101864.50;20975104;28;20136;-66
2022/01/20 05:43:05;;;;;;;4.13;0.95;;;;;;;14.25;63.18;101885.69;20974034;28;20094;-66
2022/01/20 05:53:08;;;;;;;3.60;1.08;;;;;;;14.83;63.09;101985.13;20973230;28;20067;-64
2022/01/20 06:13:36;;;;;;;4.03;0.95;;;;;;;15.25;61.14;101990.72;20954671;28;20053;-65
2022/01/20 06:23:40;;;;;;;3.00;0.93;;;;;;;15.18;61.08;101995.59;20971295;28;20110;-65
2022/01/20 06:33:42;;;;;;;6.75;1.48;;;;;;;14.73;61.26;101941.91;20971933;28;20056;-65
2022/01/20 06:43:46;;;;;;;4.80;1.60;;;;;;;14.91;58.24;102000.78;20953996;28;20071;-64
2022/01/20 06:53:48;;;;;;;4.97;1.60;;;;;;;15.05;59.85;102046.41;20969724;28;20044;-65
2022/01/20 07:03:50;;;;;;;4.00;1.13;;;;;;;14.67;62.73;101981.59;20952934;28;20048;-65
2022/01/20 07:13:52;;;;;;;3.38;1.10;;;;;;;14.89;61.96;102016.09;20968861;28;20059;-65
2022/01/20 07:23:54;;;;;;;8.35;1.50;;;;;;;15.10;62.16;102032.75;20979453;28;20536;-65
2022/01/20 07:33:57;;;;;;;6.93;1.42;;;;;;;15.48;61.04;102087.75;21002632;28;20063;-64
2022/01/20 07:44:00;;;;;;;5.97;1.45;;;;;;;15.49;61.31;102103.78;20950831;28;20413;-64
2022/01/20 07:54:31;;;;;;;4.78;1.23;;;;;;;15.27;61.76;102108.66;20960289;28;20048;-65
2022/01/20 08:04:33;;;;;;;3.92;1.38;;;;;;;15.42;61.57;102129.22;20999754;28;20079;-66
2022/01/20 08:14:40;;;;;;;4.33;1.00;;;;;;;15.38;61.31;102133.03;20981193;28;20060;-66
2022/01/20 08:24:51;;;;;;;3.25;1.00;;;;;;;15.35;61.82;102154.69;20981689;28;20098;-66
2022/01/20 08:34:53;;;;;;;3.70;1.13;;;;;;;15.33;61.83;102146.75;20946458;28;20052;-66
2022/01/20 08:45:10;;;;;;;5.10;1.20;;;;;;;14.49;60.54;101992.38;20978937;28;20125;-66
2022/01/20 08:55:12;;;;;;;3.38;1.10;;;;;;;14.95;60.23;102066.66;20978653;28;20060;-66
2022/01/20 09:05:22;;;;;;;4.85;1.35;;;;;;;15.43;59.77;102157.78;20977256;28;20052;-66
2022/01/20 09:15:39;;;;;;;4.13;1.33;;;;;;;15.42;59.67;102166.81;20962824;28;20057;-66
2022/01/20 09:26:02;;;;;;;4.25;1.20;;;;;;;15.44;59.86;102198.94;20975543;28;20638;-66
2022/01/20 09:36:10;;;;;;;5.13;1.30;;;;;;;15.44;59.86;102178.31;20974967;28;20093;-66
2022/01/20 09:46:12;;;;;;;3.97;1.33;;;;;;;15.57;59.32;102234.84;20973503;28;20049;-66
2022/01/20 09:56:16;;;;;;;4.90;1.05;;;;;;;15.54;59.23;102258.31;20973281;28;20044;-66
2022/01/20 10:06:18;;;;;;;13.95;1.63;;;;;;;15.47;58.98;102249.75;20972481;28;20494;-66
2022/01/20 10:16:35;;;;;;;4.20;1.30;;;;;;;15.47;59.04;102233.63;20957159;28;20476;-67
2022/01/20 10:26:42;;;;;;;4.75;1.20;;;;;;;15.50;59.18;102244.19;20971684;28;20118;-66
2022/01/20 10:36:53;;;;;;;3.00;1.00;;;;;;;15.06;58.71;102178.69;20970484;28;20052;-66
2022/01/20 10:47:14;;;;;;;2.08;0.77;;;;;;;15.12;58.72;102202.50;20970042;28;20048;-66
2022/01/20 10:57:17;;;;;;;2.03;0.77;;;;;;;15.45;58.45;102262.38;20968931;28;20067;-66
2022/01/20 11:07:21;;;;;;;2.95;0.90;;;;;;;15.60;58.58;102260.66;20952958;28;20053;-65
2022/01/20 11:17:28;;;;;;;4.35;1.00;;;;;;;15.52;57.01;102253.91;20969069;28;20068;-66
2022/01/20 11:27:40;;;;;;;3.30;1.05;;;;;;;15.78;56.75;102258.72;20968324;28;20094;-65
2022/01/20 11:38:05;;;;;;;2.22;1.00;;;;;;;15.36;56.67;102181.44;20968373;28;20063;-67
2022/01/20 11:48:12;;;;;;;3.63;1.25;;;;;;;15.72;56.26;102246.50;20985293;28;20139;-68
2022/01/20 11:58:15;;;;;;;3.38;1.20;;;;;;;15.57;57.82;102236.66;20985026;28;20045;-66
2022/01/20 12:08:20;;;;;;;5.40;1.13;;;;;;;15.13;58.20;102198.88;20974422;28;20040;-66
2022/01/20 12:18:22;;;;;;;2.30;1.10;;;;;;;15.48;57.87;102240.75;20998895;28;20053;-67
2022/01/20 12:28:24;;;;;;;3.53;1.00;;;;;;;14.98;56.49;102097.78;20980571;28;20048;-67
2022/01/20 12:38:39;;;;;;;3.63;1.15;;;;;;;15.86;55.58;102207.22;20997573;28;20052;-67
2022/01/20 12:48:56;;;;;;;3.37;0.87;;;;;;;15.62;54.65;102162.09;20979276;28;20131;-67
2022/01/20 12:58:58;;;;;;;3.50;1.02;;;;;;;14.57;54.35;101987.44;20995852;28;20490;-67
2022/01/20 13:09:10;;;;;;;3.05;1.15;;;;;;;15.66;53.99;102159.13;20994681;28;20040;-67
2022/01/20 13:19:12;;;;;;;2.83;1.15;;;;;;;15.96;54.50;102232.66;20975551;28;20068;-66
2022/01/20 13:29:14;;;;;;;3.35;0.98;;;;;;;15.48;54.93;102200.47;20999539;28;20539;-66
2022/01/20 13:39:37;;;;;;;3.53;1.23;;;;;;;15.81;55.81;102263.91;20984645;28;20110;-66
2022/01/20 13:49:51;;;;;;;3.38;1.40;;;;;;;15.79;56.33;102282.78;20992502;28;20048;-66
2022/01/20 13:59:55;;;;;;;2.90;1.20;;;;;;;15.92;54.95;102293.72;20973871;28;20057;-66
2022/01/20 14:09:56;;;;;;;4.20;1.20;;;;;;;15.52;54.75;102231.56;20990911;28;20102;-65
2022/01/20 14:19:59;;;;;;;2.63;1.10;;;;;;;15.45;54.69;102233.72;20990278;28;20048;-66
2022/01/20 14:30:02;;;;;;;3.15;1.10;;;;;;;15.80;54.57;102295.25;20972149;28;20037;-66
2022/01/20 14:40:10;;;;;;;2.50;0.80;;;;;;;15.71;54.37;102303.84;20973530;28;20093;-66
2022/01/20 14:50:12;;;;;;;3.10;0.85;;;;;;;15.63;54.76;102308.78;20971244;28;20070;-66
2022/01/20 15:00:15;;;;;;;2.92;0.80;;;;;;;15.69;54.46;102339.78;20988438;28;20047;-66
2022/01/20 15:10:18;;;;;;;5.10;1.10;;;;;;;15.57;54.71;102327.94;20970366;28;20083;-66
2022/01/20 15:20:19;;;;;;;4.78;1.25;;;;;;;15.25;54.49;102277.78;20969901;28;20063;-66
2022/01/20 15:30:22;;;;;;;2.70;1.13;;;;;;;15.66;54.44;102346.19;20988318;28;20049;-66
2022/01/20 15:40:23;;;;;;;1.85;0.80;;;;;;;14.97;54.56;102243.56;20991424;28;20574;-66
2022/01/20 15:50:25;;;;;;;2.22;1.00;;;;;;;15.57;54.82;102362.84;21001957;28;20098;-66
2022/01/20 16:00:27;;;;;;;4.15;0.90;;;;;;;15.19;54.89;102300.44;21001204;28;20055;-66
2022/01/20 16:10:30;;;;;;;4.13;1.00;;;;;;;15.57;54.95;102352.94;20983070;28;20044;-66
2022/01/20 16:20:32;;;;;;;2.15;0.80;;;;;;;14.70;54.98;102228.88;20999866;28;20109;-66
2022/01/20 16:30:34;;;;;;;3.05;1.00;;;;;;;15.49;54.84;102377.56;20981452;28;20041;-66
2022/01/20 16:40:36;;;;;;;2.08;0.90;;;;;;;15.58;54.98;102418.25;21000016;28;20082;-66
2022/01/20 16:50:38;;;;;;;4.53;1.33;;;;;;;15.13;54.99;102322.25;20996433;28;20056;-66
2022/01/20 17:00:39;;;;;;;4.35;1.25;;;;;;;15.48;54.93;102397.28;20997058;28;20052;-66
2022/01/20 17:10:42;;;;;;;4.25;1.33;;;;;;;15.10;54.79;102333.16;20996163;28;20047;-66
2022/01/20 17:20:44;;;;;;;4.35;1.10;;;;;;;15.47;54.76;102408.97;20977941;28;20055;-66
2022/01/20 17:30:46;;;;;;;3.88;0.90;;;;;;;15.19;54.93;102378.25;20960044;28;20044;-66
2022/01/20 17:40:49;;;;;;;2.17;0.90;;;;;;;15.47;55.44;102449.22;20975912;28;20049;-66
2022/01/20 17:50:50;;;;;;;3.00;0.90;;;;;;;15.57;55.11;102486.31;20992953;28;20072;-66
2022/01/20 18:00:52;;;;;;;2.85;0.77;;;;;;;15.26;55.01;102420.84;20994410;28;20387;-66
2022/01/20 18:10:54;;;;;;;2.25;0.80;;;;;;;15.56;55.46;102504.22;20990790;28;20054;-66
2022/01/20 18:20:57;;;;;;;3.47;1.17;;;;;;;15.57;55.26;102489.00;20956744;28;20127;-66
2022/01/20 18:30:59;;;;;;;4.05;1.15;;;;;;;15.11;55.37;102436.81;20971979;28;20051;-66
2022/01/20 18:41:01;;;;;;;4.10;1.42;;;;;;;15.57;55.06;102516.69;20971903;28;20048;-66
2022/01/20 18:51:03;;;;;;;5.18;1.33;;;;;;;15.51;55.38;102509.84;20989277;28;20106;-66
2022/01/20 19:01:05;;;;;;;3.30;1.08;;;;;;;15.60;55.18;102542.53;20988516;28;20059;-66
2022/01/20 19:11:08;;;;;;;3.88;1.35;;;;;;;15.12;55.48;102475.22;20970235;28;20075;-66
2022/01/20 19:21:11;;;;;;;3.90;1.30;;;;;;;15.47;56.12;102550.34;21001655;28;20089;-66
2022/01/20 19:31:14;;;;;;;3.00;0.90;;;;;;;14.88;55.84;102495.16;21003803;28;20045;-66
2022/01/20 19:41:16;;;;;;;3.50;0.85;;;;;;;15.06;56.58;102560.44;20985376;28;20052;-66
2022/01/20 19:51:18;;;;;;;1.90;0.88;;;;;;;15.10;56.70;102624.66;20985214;28;20082;-66
2022/01/20 20:01:20;;;;;;;4.60;1.60;;;;;;;14.96;57.37;102599.38;21000106;28;20049;-66
2022/01/20 20:11:22;;;;;;;4.70;1.27;;;;;;;14.79;57.43;102576.06;20999074;28;20114;-66
2022/01/20 20:21:24;;;;;;;4.60;1.27;;;;;;;14.73;58.12;102613.91;20998431;28;20040;-66
2022/01/20 20:31:26;;;;;;;3.42;1.00;;;;;;;14.76;58.45;102667.38;20979995;28;20048;-66
2022/01/20 20:41:32;;;;;;;3.45;1.45;;;;;;;14.26;58.57;102572.28;20979299;28;20052;-65
2022/01/20 20:51:38;;;;;;;3.75;1.10;;;;;;;14.27;58.26;102585.63;20996223;28;20048;-66
2022/01/20 21:01:40;;;;;;;3.60;1.05;;;;;;;14.41;58.53;102635.91;20995212;28;20090;-66
2022/01/20 21:11:42;;;;;;;3.30;1.10;;;;;;;14.41;57.90;102641.25;20976789;28;20060;-65
2022/01/20 21:21:44;;;;;;;3.08;1.10;;;;;;;14.43;57.95;102649.22;20976282;28;20475;-66
2022/01/20 21:31:46;;;;;;;2.75;0.98;;;;;;;14.00;58.24;102607.34;20992843;28;20056;-66
2022/01/20 21:41:47;;;;;;;4.15;1.00;;;;;;;14.30;58.40;102681.94;20973993;28;20048;-66
2022/01/20 21:51:51;;;;;;;3.85;1.10;;;;;;;14.24;58.34;102681.31;20991065;28;20040;-65
2022/01/20 22:01:54;;;;;;;3.10;1.10;;;;;;;13.85;58.24;102654.41;20990747;28;20051;-65
2022/01/20 22:11:57;;;;;;;2.78;1.10;;;;;;;13.91;58.83;102674.72;20989575;28;20063;-65
2022/01/20 22:22:00;;;;;;;3.00;0.70;;;;;;;14.09;59.79;102705.19;20972970;28;20459;-66
2022/01/20 22:32:02;;;;;;;3.03;1.00;;;;;;;13.57;59.81;102631.53;20954343;28;20047;-66
2022/01/20 22:42:05;;;;;;;3.15;1.30;;;;;;;13.64;59.62;102666.91;20988268;28;20044;-66
2022/01/20 22:52:07;;;;;;;5.38;1.10;;;;;;;13.95;59.42;102727.19;20986536;28;20052;-66
2022/01/20 23:02:08;;;;;;;4.25;1.13;;;;;;;13.56;59.03;102647.63;20987168;28;20055;-66
2022/01/20 23:12:10;;;;;;;3.00;0.95;;;;;;;13.62;58.94;102668.78;20936269;28;20143;-66
2022/01/20 23:22:16;;;;;;;3.42;1.00;;;;;;;14.05;58.72;102733.03;20968594;28;20060;-66
2022/01/20 23:32:18;;;;;;;3.40;1.15;;;;;;;13.63;58.66;102675.88;20986068;28;20048;-66
2022/01/20 23:42:30;;;;;;;2.75;1.00;;;;;;;14.07;58.89;102745.41;20985739;28;20481;-65
2022/01/20 23:52:32;;;;;;;2.08;0.75;;;;;;;14.13;58.64;102772.84;20967549;28;20069;-66
